sensor_id;sensor_type;location;lat;lon;timestamp;P1;durP1;ratioP1;P2;durP2;ratioP2
47922;SDS011;33688;44.354;9.228;2023-11-19T00:00:22;3.42;;;1.58;;
47922;SDS011;33688;44.354;9.228;2023-11-19T00:02:48;3.95;;;2.35;;
47922;SDS011;33688;44.354;9.228;2023-11-19T00:05:14;4.30;;;2.35;;
47922;SDS011;33688;44.354;9.228;2023-11-19T00:07:40;3.55;;;1.98;;
47922;SDS011;33688;44.354;9.228;2023-11-19T00:10:13;2.80;;;1.88;;
47922;SDS011;33688;44.354;9.228;2023-11-19T00:12:44;2.75;;;1.90;;
47922;SDS011;33688;44.354;9.228;2023-11-19T00:15:12;3.08;;;1.65;;
47922;SDS011;33688;44.354;9.228;2023-11-19T00:17:41;4.20;;;2.03;;
47922;SDS011;33688;44.354;9.228;2023-11-19T00:20:12;5.97;;;2.00;;
47922;SDS011;33688;44.354;9.228;2023-11-19T00:22:39;6.22;;;2.70;;
47922;SDS011;33688;44.354;9.228;2023-11-19T00:25:07;3.63;;;1.88;;
47922;SDS011;33688;44.354;9.228;2023-11-19T00:27:36;5.03;;;2.17;;
47922;SDS011;33688;44.354;9.228;2023-11-19T00:30:05;2.28;;;1.73;;
47922;SDS011;33688;44.354;9.228;2023-11-19T00:32:32;3.05;;;1.73;;
47922;SDS011;33688;44.354;9.228;2023-11-19T00:34:59;3.40;;;1.63;;
47922;SDS011;33688;44.354;9.228;2023-11-19T00:37:25;4.70;;;2.13;;
47922;SDS011;33688;44.354;9.228;2023-11-19T00:39:51;6.75;;;2.05;;
47922;SDS011;33688;44.354;9.228;2023-11-19T00:42:17;4.43;;;2.17;;
47922;SDS011;33688;44.354;9.228;2023-11-19T00:44:43;3.78;;;1.98;;
47922;SDS011;33688;44.354;9.228;2023-11-19T00:47:11;2.95;;;1.55;;
47922;SDS011;33688;44.354;9.228;2023-11-19T00:49:39;5.13;;;1.98;;
47922;SDS011;33688;44.354;9.228;2023-11-19T00:52:05;3.15;;;1.95;;
47922;SDS011;33688;44.354;9.228;2023-11-19T00:54:32;2.30;;;1.50;;
47922;SDS011;33688;44.354;9.228;2023-11-19T00:56:58;3.80;;;2.33;;
47922;SDS011;33688;44.354;9.228;2023-11-19T00:59:24;4.13;;;2.17;;
47922;SDS011;33688;44.354;9.228;2023-11-19T01:01:49;3.08;;;1.80;;
47922;SDS011;33688;44.354;9.228;2023-11-19T01:04:16;3.67;;;1.80;;
47922;SDS011;33688;44.354;9.228;2023-11-19T01:06:44;2.83;;;1.80;;
47922;SDS011;33688;44.354;9.228;2023-11-19T01:09:10;3.13;;;2.25;;
47922;SDS011;33688;44.354;9.228;2023-11-19T01:11:35;3.60;;;1.90;;
47922;SDS011;33688;44.354;9.228;2023-11-19T01:14:02;2.63;;;1.77;;
47922;SDS011;33688;44.354;9.228;2023-11-19T01:16:28;4.35;;;2.17;;
47922;SDS011;33688;44.354;9.228;2023-11-19T01:18:53;4.10;;;1.83;;
47922;SDS011;33688;44.354;9.228;2023-11-19T01:21:19;2.53;;;1.90;;
47922;SDS011;33688;44.354;9.228;2023-11-19T01:23:47;2.97;;;1.98;;
47922;SDS011;33688;44.354;9.228;2023-11-19T01:26:13;3.50;;;1.58;;
47922;SDS011;33688;44.354;9.228;2023-11-19T01:28:39;3.05;;;1.88;;
47922;SDS011;33688;44.354;9.228;2023-11-19T01:31:08;3.17;;;1.92;;
47922;SDS011;33688;44.354;9.228;2023-11-19T01:33:38;3.67;;;1.70;;
47922;SDS011;33688;44.354;9.228;2023-11-19T01:36:08;3.50;;;2.03;;
47922;SDS011;33688;44.354;9.228;2023-11-19T01:38:38;3.72;;;1.60;;
47922;SDS011;33688;44.354;9.228;2023-11-19T01:41:03;10.98;;;2.72;;
47922;SDS011;33688;44.354;9.228;2023-11-19T01:43:36;3.97;;;2.00;;
47922;SDS011;33688;44.354;9.228;2023-11-19T01:46:06;2.63;;;1.60;;
47922;SDS011;33688;44.354;9.228;2023-11-19T01:48:35;3.05;;;1.80;;
47922;SDS011;33688;44.354;9.228;2023-11-19T01:51:05;4.63;;;2.28;;
47922;SDS011;33688;44.354;9.228;2023-11-19T01:53:33;3.00;;;1.63;;
47922;SDS011;33688;44.354;9.228;2023-11-19T01:56:02;2.38;;;1.50;;
47922;SDS011;33688;44.354;9.228;2023-11-19T01:58:29;1.98;;;1.20;;
47922;SDS011;33688;44.354;9.228;2023-11-19T02:00:56;2.70;;;1.80;;
47922;SDS011;33688;44.354;9.228;2023-11-19T02:03:22;2.55;;;1.55;;
47922;SDS011;33688;44.354;9.228;2023-11-19T02:05:51;2.35;;;1.58;;
47922;SDS011;33688;44.354;9.228;2023-11-19T02:08:18;1.70;;;1.23;;
47922;SDS011;33688;44.354;9.228;2023-11-19T02:10:45;2.15;;;1.40;;
47922;SDS011;33688;44.354;9.228;2023-11-19T02:13:11;2.88;;;1.67;;
47922;SDS011;33688;44.354;9.228;2023-11-19T02:15:39;3.30;;;1.77;;
47922;SDS011;33688;44.354;9.228;2023-11-19T02:18:19;2.47;;;1.48;;
47922;SDS011;33688;44.354;9.228;2023-11-19T02:20:55;4.70;;;1.48;;
47922;SDS011;33688;44.354;9.228;2023-11-19T02:23:23;2.83;;;1.75;;
47922;SDS011;33688;44.354;9.228;2023-11-19T02:28:50;3.33;;;1.55;;
47922;SDS011;33688;44.354;9.228;2023-11-19T02:31:16;2.40;;;1.65;;
47922;SDS011;33688;44.354;9.228;2023-11-19T02:33:41;2.60;;;1.70;;
47922;SDS011;33688;44.354;9.228;2023-11-19T02:36:07;2.00;;;1.35;;
47922;SDS011;33688;44.354;9.228;2023-11-19T02:38:34;3.33;;;1.38;;
47922;SDS011;33688;44.354;9.228;2023-11-19T02:41:04;2.20;;;1.40;;
47922;SDS011;33688;44.354;9.228;2023-11-19T02:43:36;2.55;;;1.65;;
47922;SDS011;33688;44.354;9.228;2023-11-19T02:46:04;2.60;;;1.30;;
47922;SDS011;33688;44.354;9.228;2023-11-19T02:48:34;2.60;;;1.73;;
47922;SDS011;33688;44.354;9.228;2023-11-19T02:51:04;1.70;;;1.10;;
47922;SDS011;33688;44.354;9.228;2023-11-19T02:53:34;2.92;;;1.55;;
47922;SDS011;33688;44.354;9.228;2023-11-19T02:56:00;3.15;;;1.98;;
47922;SDS011;33688;44.354;9.228;2023-11-19T02:58:31;2.40;;;1.50;;
47922;SDS011;33688;44.354;9.228;2023-11-19T03:00:58;1.98;;;1.30;;
47922;SDS011;33688;44.354;9.228;2023-11-19T03:03:34;5.93;;;1.70;;
47922;SDS011;33688;44.354;9.228;2023-11-19T03:06:09;2.55;;;1.55;;
47922;SDS011;33688;44.354;9.228;2023-11-19T03:08:35;2.93;;;2.00;;
47922;SDS011;33688;44.354;9.228;2023-11-19T03:11:01;1.77;;;1.17;;
47922;SDS011;33688;44.354;9.228;2023-11-19T03:13:27;2.95;;;1.50;;
47922;SDS011;33688;44.354;9.228;2023-11-19T03:15:53;2.35;;;1.40;;
47922;SDS011;33688;44.354;9.228;2023-11-19T03:18:19;2.33;;;1.38;;
47922;SDS011;33688;44.354;9.228;2023-11-19T03:20:46;1.60;;;1.38;;
47922;SDS011;33688;44.354;9.228;2023-11-19T03:23:13;2.05;;;1.35;;
47922;SDS011;33688;44.354;9.228;2023-11-19T03:25:38;2.35;;;1.63;;
47922;SDS011;33688;44.354;9.228;2023-11-19T03:28:04;3.50;;;1.42;;
47922;SDS011;33688;44.354;9.228;2023-11-19T03:30:31;1.73;;;1.38;;
47922;SDS011;33688;44.354;9.228;2023-11-19T03:32:58;1.83;;;1.10;;
47922;SDS011;33688;44.354;9.228;2023-11-19T03:35:26;2.55;;;1.60;;
47922;SDS011;33688;44.354;9.228;2023-11-19T03:37:53;1.55;;;1.08;;
47922;SDS011;33688;44.354;9.228;2023-11-19T03:40:20;2.22;;;1.25;;
47922;SDS011;33688;44.354;9.228;2023-11-19T03:42:46;2.30;;;1.58;;
47922;SDS011;33688;44.354;9.228;2023-11-19T03:45:12;1.77;;;1.33;;
47922;SDS011;33688;44.354;9.228;2023-11-19T03:47:38;2.67;;;1.40;;
47922;SDS011;33688;44.354;9.228;2023-11-19T03:50:05;2.13;;;1.50;;
47922;SDS011;33688;44.354;9.228;2023-11-19T03:52:33;1.40;;;1.30;;
47922;SDS011;33688;44.354;9.228;2023-11-19T03:54:59;3.13;;;1.70;;
47922;SDS011;33688;44.354;9.228;2023-11-19T03:57:27;2.33;;;1.33;;
47922;SDS011;33688;44.354;9.228;2023-11-19T03:59:53;1.55;;;1.23;;
47922;SDS011;33688;44.354;9.228;2023-11-19T04:02:20;3.05;;;1.60;;
47922;SDS011;33688;44.354;9.228;2023-11-19T04:04:47;2.22;;;1.20;;
47922;SDS011;33688;44.354;9.228;2023-11-19T04:07:13;1.25;;;0.80;;
47922;SDS011;33688;44.354;9.228;2023-11-19T04:09:40;2.38;;;1.30;;
47922;SDS011;33688;44.354;9.228;2023-11-19T04:12:06;1.48;;;1.25;;
47922;SDS011;33688;44.354;9.228;2023-11-19T04:14:32;1.52;;;1.25;;
47922;SDS011;33688;44.354;9.228;2023-11-19T04:16:58;1.25;;;0.98;;
47922;SDS011;33688;44.354;9.228;2023-11-19T04:19:24;1.98;;;1.20;;
47922;SDS011;33688;44.354;9.228;2023-11-19T04:21:49;2.08;;;1.45;;
47922;SDS011;33688;44.354;9.228;2023-11-19T04:24:17;2.53;;;1.80;;
47922;SDS011;33688;44.354;9.228;2023-11-19T04:26:43;1.90;;;1.30;;
47922;SDS011;33688;44.354;9.228;2023-11-19T04:29:14;2.25;;;1.40;;
47922;SDS011;33688;44.354;9.228;2023-11-19T04:31:44;1.58;;;1.10;;
47922;SDS011;33688;44.354;9.228;2023-11-19T04:34:11;2.35;;;1.50;;
47922;SDS011;33688;44.354;9.228;2023-11-19T04:36:37;2.22;;;1.42;;
47922;SDS011;33688;44.354;9.228;2023-11-19T04:39:04;2.05;;;1.48;;
47922;SDS011;33688;44.354;9.228;2023-11-19T04:41:35;1.60;;;1.20;;
47922;SDS011;33688;44.354;9.228;2023-11-19T04:44:02;1.75;;;1.10;;
47922;SDS011;33688;44.354;9.228;2023-11-19T04:46:27;4.32;;;1.42;;
47922;SDS011;33688;44.354;9.228;2023-11-19T04:48:53;1.88;;;1.48;;
47922;SDS011;33688;44.354;9.228;2023-11-19T04:51:19;7.07;;;1.58;;
47922;SDS011;33688;44.354;9.228;2023-11-19T04:53:45;1.52;;;1.10;;
47922;SDS011;33688;44.354;9.228;2023-11-19T04:56:11;1.40;;;1.27;;
47922;SDS011;33688;44.354;9.228;2023-11-19T04:58:38;1.38;;;1.00;;
47922;SDS011;33688;44.354;9.228;2023-11-19T05:01:04;3.05;;;1.30;;
47922;SDS011;33688;44.354;9.228;2023-11-19T05:03:30;1.20;;;1.10;;
47922;SDS011;33688;44.354;9.228;2023-11-19T05:05:57;1.50;;;0.93;;
47922;SDS011;33688;44.354;9.228;2023-11-19T05:08:23;1.23;;;1.02;;
47922;SDS011;33688;44.354;9.228;2023-11-19T05:10:49;3.28;;;1.40;;
47922;SDS011;33688;44.354;9.228;2023-11-19T05:13:15;1.42;;;1.13;;
47922;SDS011;33688;44.354;9.228;2023-11-19T05:15:42;1.75;;;1.60;;
47922;SDS011;33688;44.354;9.228;2023-11-19T05:18:08;2.55;;;1.38;;
47922;SDS011;33688;44.354;9.228;2023-11-19T05:20:34;1.85;;;1.33;;
47922;SDS011;33688;44.354;9.228;2023-11-19T05:23:00;2.08;;;1.40;;
47922;SDS011;33688;44.354;9.228;2023-11-19T05:25:26;1.67;;;1.40;;
47922;SDS011;33688;44.354;9.228;2023-11-19T05:27:52;1.02;;;0.90;;
47922;SDS011;33688;44.354;9.228;2023-11-19T05:30:18;1.48;;;1.20;;
47922;SDS011;33688;44.354;9.228;2023-11-19T05:32:45;1.98;;;1.10;;
47922;SDS011;33688;44.354;9.228;2023-11-19T05:35:11;1.52;;;1.15;;
47922;SDS011;33688;44.354;9.228;2023-11-19T05:37:37;2.45;;;1.20;;
47922;SDS011;33688;44.354;9.228;2023-11-19T05:40:03;2.58;;;1.38;;
47922;SDS011;33688;44.354;9.228;2023-11-19T05:42:37;3.13;;;1.30;;
47922;SDS011;33688;44.354;9.228;2023-11-19T05:45:03;1.75;;;0.90;;
47922;SDS011;33688;44.354;9.228;2023-11-19T05:47:29;3.95;;;1.40;;
47922;SDS011;33688;44.354;9.228;2023-11-19T05:49:54;3.78;;;1.40;;
47922;SDS011;33688;44.354;9.228;2023-11-19T05:52:20;2.38;;;0.98;;
47922;SDS011;33688;44.354;9.228;2023-11-19T05:54:48;1.15;;;1.02;;
47922;SDS011;33688;44.354;9.228;2023-11-19T05:57:17;2.38;;;0.95;;
47922;SDS011;33688;44.354;9.228;2023-11-19T05:59:49;1.13;;;0.85;;
47922;SDS011;33688;44.354;9.228;2023-11-19T06:02:15;4.85;;;1.52;;
47922;SDS011;33688;44.354;9.228;2023-11-19T06:04:41;1.30;;;1.17;;
47922;SDS011;33688;44.354;9.228;2023-11-19T06:07:09;1.50;;;1.10;;
47922;SDS011;33688;44.354;9.228;2023-11-19T06:09:35;2.90;;;1.42;;
47922;SDS011;33688;44.354;9.228;2023-11-19T06:12:01;1.35;;;0.98;;
47922;SDS011;33688;44.354;9.228;2023-11-19T06:14:27;1.90;;;1.30;;
47922;SDS011;33688;44.354;9.228;2023-11-19T06:16:53;1.23;;;1.05;;
47922;SDS011;33688;44.354;9.228;2023-11-19T06:19:19;1.42;;;1.00;;
47922;SDS011;33688;44.354;9.228;2023-11-19T06:21:46;1.52;;;1.30;;
47922;SDS011;33688;44.354;9.228;2023-11-19T06:24:12;1.80;;;1.40;;
47922;SDS011;33688;44.354;9.228;2023-11-19T06:26:38;1.60;;;1.00;;
47922;SDS011;33688;44.354;9.228;2023-11-19T06:29:04;1.48;;;1.23;;
47922;SDS011;33688;44.354;9.228;2023-11-19T06:31:30;0.98;;;0.88;;
47922;SDS011;33688;44.354;9.228;2023-11-19T06:33:55;2.55;;;1.20;;
47922;SDS011;33688;44.354;9.228;2023-11-19T06:36:21;2.50;;;1.80;;
47922;SDS011;33688;44.354;9.228;2023-11-19T06:38:47;1.83;;;1.00;;
47922;SDS011;33688;44.354;9.228;2023-11-19T06:41:13;1.85;;;1.13;;
47922;SDS011;33688;44.354;9.228;2023-11-19T06:43:38;4.35;;;1.15;;
47922;SDS011;33688;44.354;9.228;2023-11-19T06:46:04;1.23;;;1.05;;
47922;SDS011;33688;44.354;9.228;2023-11-19T06:48:34;2.33;;;1.23;;
47922;SDS011;33688;44.354;9.228;2023-11-19T06:51:00;2.35;;;1.98;;
47922;SDS011;33688;44.354;9.228;2023-11-19T06:53:25;2.00;;;1.60;;
47922;SDS011;33688;44.354;9.228;2023-11-19T06:55:54;2.95;;;1.92;;
47922;SDS011;33688;44.354;9.228;2023-11-19T06:58:20;2.58;;;2.22;;
47922;SDS011;33688;44.354;9.228;2023-11-19T07:00:46;2.13;;;1.75;;
47922;SDS011;33688;44.354;9.228;2023-11-19T07:03:13;2.65;;;1.80;;
47922;SDS011;33688;44.354;9.228;2023-11-19T07:05:39;3.88;;;2.10;;
47922;SDS011;33688;44.354;9.228;2023-11-19T07:08:05;3.03;;;1.92;;
47922;SDS011;33688;44.354;9.228;2023-11-19T07:10:32;3.83;;;2.47;;
47922;SDS011;33688;44.354;9.228;2023-11-19T07:12:59;4.90;;;2.70;;
47922;SDS011;33688;44.354;9.228;2023-11-19T07:15:25;3.70;;;2.60;;
47922;SDS011;33688;44.354;9.228;2023-11-19T07:17:51;2.28;;;2.08;;
47922;SDS011;33688;44.354;9.228;2023-11-19T07:20:19;3.35;;;2.53;;
47922;SDS011;33688;44.354;9.228;2023-11-19T07:22:45;3.72;;;2.60;;
47922;SDS011;33688;44.354;9.228;2023-11-19T07:25:14;4.55;;;2.92;;
47922;SDS011;33688;44.354;9.228;2023-11-19T07:27:40;4.47;;;2.30;;
47922;SDS011;33688;44.354;9.228;2023-11-19T07:30:06;4.57;;;3.20;;
47922;SDS011;33688;44.354;9.228;2023-11-19T07:32:32;3.38;;;2.65;;
47922;SDS011;33688;44.354;9.228;2023-11-19T07:34:58;3.95;;;2.08;;
47922;SDS011;33688;44.354;9.228;2023-11-19T07:37:24;2.67;;;2.30;;
47922;SDS011;33688;44.354;9.228;2023-11-19T07:39:51;3.30;;;2.28;;
47922;SDS011;33688;44.354;9.228;2023-11-19T07:42:17;3.67;;;2.30;;
47922;SDS011;33688;44.354;9.228;2023-11-19T07:44:43;5.40;;;2.28;;
47922;SDS011;33688;44.354;9.228;2023-11-19T07:47:09;2.10;;;1.80;;
47922;SDS011;33688;44.354;9.228;2023-11-19T07:49:36;3.58;;;2.40;;
47922;SDS011;33688;44.354;9.228;2023-11-19T07:52:02;3.45;;;2.47;;
47922;SDS011;33688;44.354;9.228;2023-11-19T07:54:28;4.88;;;2.53;;
47922;SDS011;33688;44.354;9.228;2023-11-19T07:56:54;3.58;;;2.42;;
47922;SDS011;33688;44.354;9.228;2023-11-19T07:59:20;2.90;;;2.20;;
47922;SDS011;33688;44.354;9.228;2023-11-19T08:01:46;1.98;;;1.67;;
47922;SDS011;33688;44.354;9.228;2023-11-19T08:04:13;3.65;;;2.28;;
47922;SDS011;33688;44.354;9.228;2023-11-19T08:06:39;2.60;;;2.10;;
47922;SDS011;33688;44.354;9.228;2023-11-19T08:09:05;2.97;;;2.55;;
47922;SDS011;33688;44.354;9.228;2023-11-19T08:11:31;3.15;;;2.25;;
47922;SDS011;33688;44.354;9.228;2023-11-19T08:13:58;3.72;;;2.30;;
47922;SDS011;33688;44.354;9.228;2023-11-19T08:16:24;2.47;;;2.03;;
47922;SDS011;33688;44.354;9.228;2023-11-19T08:18:51;2.50;;;2.10;;
47922;SDS011;33688;44.354;9.228;2023-11-19T08:21:17;2.20;;;1.98;;
47922;SDS011;33688;44.354;9.228;2023-11-19T08:23:43;2.53;;;1.88;;
47922;SDS011;33688;44.354;9.228;2023-11-19T08:26:08;2.30;;;1.75;;
47922;SDS011;33688;44.354;9.228;2023-11-19T08:28:34;2.45;;;1.95;;
47922;SDS011;33688;44.354;9.228;2023-11-19T08:31:00;1.75;;;1.45;;
47922;SDS011;33688;44.354;9.228;2023-11-19T08:33:26;2.05;;;1.60;;
47922;SDS011;33688;44.354;9.228;2023-11-19T08:35:52;1.95;;;1.80;;
47922;SDS011;33688;44.354;9.228;2023-11-19T08:38:18;2.22;;;1.73;;
47922;SDS011;33688;44.354;9.228;2023-11-19T08:40:44;2.10;;;1.83;;
47922;SDS011;33688;44.354;9.228;2023-11-19T08:43:09;2.42;;;1.80;;
47922;SDS011;33688;44.354;9.228;2023-11-19T08:45:35;1.92;;;1.63;;
47922;SDS011;33688;44.354;9.228;2023-11-19T08:48:01;2.08;;;1.67;;
47922;SDS011;33688;44.354;9.228;2023-11-19T08:50:27;1.73;;;1.45;;
47922;SDS011;33688;44.354;9.228;2023-11-19T08:52:53;1.80;;;1.35;;
47922;SDS011;33688;44.354;9.228;2023-11-19T08:55:18;2.05;;;1.60;;
47922;SDS011;33688;44.354;9.228;2023-11-19T08:57:44;2.15;;;1.95;;
47922;SDS011;33688;44.354;9.228;2023-11-19T09:00:10;2.25;;;1.92;;
47922;SDS011;33688;44.354;9.228;2023-11-19T09:02:39;5.72;;;1.58;;
47922;SDS011;33688;44.354;9.228;2023-11-19T09:05:05;2.00;;;1.63;;
47922;SDS011;33688;44.354;9.228;2023-11-19T09:07:34;1.65;;;1.48;;
47922;SDS011;33688;44.354;9.228;2023-11-19T09:10:00;3.38;;;1.90;;
47922;SDS011;33688;44.354;9.228;2023-11-19T09:12:26;2.47;;;1.90;;
47922;SDS011;33688;44.354;9.228;2023-11-19T09:14:52;2.53;;;1.88;;
47922;SDS011;33688;44.354;9.228;2023-11-19T09:17:19;2.78;;;1.88;;
47922;SDS011;33688;44.354;9.228;2023-11-19T09:19:45;1.80;;;1.60;;
47922;SDS011;33688;44.354;9.228;2023-11-19T09:22:11;2.65;;;1.45;;
47922;SDS011;33688;44.354;9.228;2023-11-19T09:24:36;2.03;;;1.77;;
47922;SDS011;33688;44.354;9.228;2023-11-19T09:27:02;1.83;;;1.60;;
47922;SDS011;33688;44.354;9.228;2023-11-19T09:29:31;2.25;;;1.52;;
47922;SDS011;33688;44.354;9.228;2023-11-19T09:31:57;2.17;;;1.70;;
47922;SDS011;33688;44.354;9.228;2023-11-19T09:34:23;1.90;;;1.40;;
47922;SDS011;33688;44.354;9.228;2023-11-19T09:36:49;3.33;;;1.70;;
47922;SDS011;33688;44.354;9.228;2023-11-19T09:39:15;1.65;;;1.30;;
47922;SDS011;33688;44.354;9.228;2023-11-19T09:41:43;2.42;;;1.70;;
47922;SDS011;33688;44.354;9.228;2023-11-19T09:44:11;2.10;;;1.25;;
47922;SDS011;33688;44.354;9.228;2023-11-19T09:46:41;2.15;;;1.50;;
47922;SDS011;33688;44.354;9.228;2023-11-19T09:49:08;4.90;;;2.15;;
47922;SDS011;33688;44.354;9.228;2023-11-19T09:51:39;2.08;;;1.60;;
47922;SDS011;33688;44.354;9.228;2023-11-19T09:54:05;1.80;;;1.35;;
47922;SDS011;33688;44.354;9.228;2023-11-19T09:56:33;2.47;;;1.40;;
47922;SDS011;33688;44.354;9.228;2023-11-19T09:59:01;3.38;;;2.10;;
47922;SDS011;33688;44.354;9.228;2023-11-19T10:01:27;2.15;;;1.73;;
47922;SDS011;33688;44.354;9.228;2023-11-19T10:03:55;3.20;;;1.40;;
47922;SDS011;33688;44.354;9.228;2023-11-19T10:06:23;1.90;;;1.60;;
47922;SDS011;33688;44.354;9.228;2023-11-19T10:08:52;1.77;;;1.35;;
47922;SDS011;33688;44.354;9.228;2023-11-19T10:11:18;2.35;;;1.52;;
47922;SDS011;33688;44.354;9.228;2023-11-19T10:13:44;2.22;;;1.55;;
47922;SDS011;33688;44.354;9.228;2023-11-19T10:16:12;2.45;;;1.42;;
47922;SDS011;33688;44.354;9.228;2023-11-19T10:18:45;2.10;;;1.58;;
47922;SDS011;33688;44.354;9.228;2023-11-19T10:21:18;1.70;;;1.20;;
47922;SDS011;33688;44.354;9.228;2023-11-19T10:23:55;2.08;;;1.42;;
47922;SDS011;33688;44.354;9.228;2023-11-19T10:26:23;2.78;;;1.80;;
47922;SDS011;33688;44.354;9.228;2023-11-19T10:28:49;2.20;;;1.73;;
47922;SDS011;33688;44.354;9.228;2023-11-19T10:31:16;2.53;;;1.52;;
47922;SDS011;33688;44.354;9.228;2023-11-19T10:33:43;2.50;;;1.50;;
47922;SDS011;33688;44.354;9.228;2023-11-19T10:36:11;3.78;;;1.50;;
47922;SDS011;33688;44.354;9.228;2023-11-19T10:38:37;2.63;;;1.52;;
47922;SDS011;33688;44.354;9.228;2023-11-19T10:41:04;2.72;;;1.55;;
47922;SDS011;33688;44.354;9.228;2023-11-19T10:43:45;2.78;;;1.60;;
47922;SDS011;33688;44.354;9.228;2023-11-19T10:46:11;2.80;;;1.50;;
47922;SDS011;33688;44.354;9.228;2023-11-19T10:48:39;4.13;;;1.75;;
47922;SDS011;33688;44.354;9.228;2023-11-19T10:51:06;1.90;;;1.35;;
47922;SDS011;33688;44.354;9.228;2023-11-19T10:53:36;3.20;;;1.60;;
47922;SDS011;33688;44.354;9.228;2023-11-19T10:56:10;2.53;;;1.55;;
47922;SDS011;33688;44.354;9.228;2023-11-19T10:58:37;2.90;;;1.42;;
47922;SDS011;33688;44.354;9.228;2023-11-19T11:01:08;3.13;;;1.65;;
47922;SDS011;33688;44.354;9.228;2023-11-19T11:03:39;3.90;;;1.50;;
47922;SDS011;33688;44.354;9.228;2023-11-19T11:06:06;4.13;;;1.80;;
47922;SDS011;33688;44.354;9.228;2023-11-19T11:08:32;3.10;;;1.60;;
47922;SDS011;33688;44.354;9.228;2023-11-19T11:11:03;3.25;;;1.40;;
47922;SDS011;33688;44.354;9.228;2023-11-19T11:13:31;1.90;;;1.23;;
47922;SDS011;33688;44.354;9.228;2023-11-19T11:15:59;2.53;;;1.50;;
47922;SDS011;33688;44.354;9.228;2023-11-19T11:18:25;2.70;;;1.45;;
47922;SDS011;33688;44.354;9.228;2023-11-19T11:20:52;2.63;;;1.55;;
47922;SDS011;33688;44.354;9.228;2023-11-19T11:23:36;1.80;;;1.40;;
47922;SDS011;33688;44.354;9.228;2023-11-19T11:26:22;3.00;;;1.48;;
47922;SDS011;33688;44.354;9.228;2023-11-19T11:28:59;3.00;;;1.55;;
47922;SDS011;33688;44.354;9.228;2023-11-19T11:34:40;3.90;;;1.95;;
47922;SDS011;33688;44.354;9.228;2023-11-19T11:37:49;2.75;;;1.58;;
47922;SDS011;33688;44.354;9.228;2023-11-19T11:40:25;5.13;;;1.48;;
47922;SDS011;33688;44.354;9.228;2023-11-19T11:42:51;2.92;;;1.33;;
47922;SDS011;33688;44.354;9.228;2023-11-19T11:45:18;2.75;;;1.55;;
47922;SDS011;33688;44.354;9.228;2023-11-19T11:50:22;4.50;;;1.75;;
47922;SDS011;33688;44.354;9.228;2023-11-19T11:58:21;3.45;;;1.80;;
47922;SDS011;33688;44.354;9.228;2023-11-19T12:00:52;2.92;;;1.45;;
47922;SDS011;33688;44.354;9.228;2023-11-19T12:03:21;4.18;;;1.45;;
47922;SDS011;33688;44.354;9.228;2023-11-19T12:05:48;2.53;;;1.40;;
47922;SDS011;33688;44.354;9.228;2023-11-19T12:08:18;2.50;;;1.52;;
47922;SDS011;33688;44.354;9.228;2023-11-19T12:10:49;1.77;;;1.33;;
47922;SDS011;33688;44.354;9.228;2023-11-19T12:13:16;2.58;;;1.67;;
47922;SDS011;33688;44.354;9.228;2023-11-19T12:18:26;3.72;;;1.60;;
47922;SDS011;33688;44.354;9.228;2023-11-19T12:20:55;2.50;;;1.15;;
47922;SDS011;33688;44.354;9.228;2023-11-19T12:23:22;3.30;;;1.45;;
47922;SDS011;33688;44.354;9.228;2023-11-19T12:25:52;2.10;;;1.52;;
47922;SDS011;33688;44.354;9.228;2023-11-19T12:28:18;2.65;;;1.35;;
47922;SDS011;33688;44.354;9.228;2023-11-19T12:30:44;2.10;;;1.30;;
47922;SDS011;33688;44.354;9.228;2023-11-19T12:33:11;3.53;;;1.85;;
47922;SDS011;33688;44.354;9.228;2023-11-19T12:35:47;2.80;;;1.02;;
47922;SDS011;33688;44.354;9.228;2023-11-19T12:41:02;3.75;;;1.30;;
47922;SDS011;33688;44.354;9.228;2023-11-19T12:43:33;3.25;;;1.38;;
47922;SDS011;33688;44.354;9.228;2023-11-19T12:45:59;3.05;;;1.55;;
47922;SDS011;33688;44.354;9.228;2023-11-19T12:48:25;3.58;;;1.30;;
47922;SDS011;33688;44.354;9.228;2023-11-19T12:50:53;3.38;;;1.50;;
47922;SDS011;33688;44.354;9.228;2023-11-19T12:53:21;3.50;;;1.52;;
47922;SDS011;33688;44.354;9.228;2023-11-19T12:55:49;4.28;;;1.48;;
47922;SDS011;33688;44.354;9.228;2023-11-19T12:58:32;1.73;;;1.30;;
47922;SDS011;33688;44.354;9.228;2023-11-19T13:01:05;1.55;;;1.10;;
47922;SDS011;33688;44.354;9.228;2023-11-19T13:03:33;3.38;;;1.23;;
47922;SDS011;33688;44.354;9.228;2023-11-19T13:06:13;2.03;;;1.30;;
47922;SDS011;33688;44.354;9.228;2023-11-19T13:08:44;5.88;;;1.33;;
47922;SDS011;33688;44.354;9.228;2023-11-19T13:11:15;2.30;;;1.25;;
47922;SDS011;33688;44.354;9.228;2023-11-19T13:13:56;3.33;;;1.48;;
47922;SDS011;33688;44.354;9.228;2023-11-19T13:16:30;4.70;;;1.40;;
47922;SDS011;33688;44.354;9.228;2023-11-19T13:18:56;3.47;;;1.40;;
47922;SDS011;33688;44.354;9.228;2023-11-19T13:21:23;3.20;;;1.30;;
47922;SDS011;33688;44.354;9.228;2023-11-19T13:23:49;1.27;;;1.02;;
47922;SDS011;33688;44.354;9.228;2023-11-19T13:26:15;1.40;;;0.90;;
47922;SDS011;33688;44.354;9.228;2023-11-19T13:28:42;1.92;;;1.20;;
47922;SDS011;33688;44.354;9.228;2023-11-19T13:31:07;2.60;;;1.35;;
47922;SDS011;33688;44.354;9.228;2023-11-19T13:33:33;5.88;;;1.55;;
47922;SDS011;33688;44.354;9.228;2023-11-19T13:35:59;4.05;;;1.13;;
47922;SDS011;33688;44.354;9.228;2023-11-19T13:38:31;0.90;;;0.90;;
47922;SDS011;33688;44.354;9.228;2023-11-19T13:40:58;2.22;;;1.30;;
47922;SDS011;33688;44.354;9.228;2023-11-19T13:43:25;4.50;;;1.30;;
47922;SDS011;33688;44.354;9.228;2023-11-19T13:45:53;4.60;;;1.60;;
47922;SDS011;33688;44.354;9.228;2023-11-19T13:48:21;2.45;;;1.40;;
47922;SDS011;33688;44.354;9.228;2023-11-19T13:50:47;3.42;;;1.60;;
47922;SDS011;33688;44.354;9.228;2023-11-19T13:53:13;3.45;;;1.33;;
47922;SDS011;33688;44.354;9.228;2023-11-19T13:55:38;1.90;;;1.08;;
47922;SDS011;33688;44.354;9.228;2023-11-19T13:58:04;3.72;;;1.50;;
47922;SDS011;33688;44.354;9.228;2023-11-19T14:00:31;3.35;;;1.23;;
47922;SDS011;33688;44.354;9.228;2023-11-19T14:02:57;3.47;;;1.60;;
47922;SDS011;33688;44.354;9.228;2023-11-19T14:05:24;2.63;;;1.50;;
47922;SDS011;33688;44.354;9.228;2023-11-19T14:07:50;2.95;;;1.42;;
47922;SDS011;33688;44.354;9.228;2023-11-19T14:10:16;3.58;;;1.48;;
47922;SDS011;33688;44.354;9.228;2023-11-19T14:12:42;1.83;;;1.35;;
47922;SDS011;33688;44.354;9.228;2023-11-19T14:15:09;3.58;;;1.40;;
47922;SDS011;33688;44.354;9.228;2023-11-19T14:17:37;1.95;;;1.08;;
47922;SDS011;33688;44.354;9.228;2023-11-19T14:20:03;2.75;;;1.30;;
47922;SDS011;33688;44.354;9.228;2023-11-19T14:22:38;1.95;;;1.20;;
47922;SDS011;33688;44.354;9.228;2023-11-19T14:25:08;3.30;;;1.33;;
47922;SDS011;33688;44.354;9.228;2023-11-19T14:27:42;2.85;;;1.30;;
47922;SDS011;33688;44.354;9.228;2023-11-19T14:30:09;2.97;;;1.45;;
47922;SDS011;33688;44.354;9.228;2023-11-19T14:32:38;2.15;;;1.15;;
47922;SDS011;33688;44.354;9.228;2023-11-19T14:35:09;2.38;;;1.13;;
47922;SDS011;33688;44.354;9.228;2023-11-19T14:37:35;5.57;;;1.40;;
47922;SDS011;33688;44.354;9.228;2023-11-19T14:40:02;3.33;;;1.67;;
47922;SDS011;33688;44.354;9.228;2023-11-19T14:42:32;4.53;;;1.55;;
47922;SDS011;33688;44.354;9.228;2023-11-19T14:44:58;3.65;;;1.15;;
47922;SDS011;33688;44.354;9.228;2023-11-19T14:47:24;3.53;;;1.20;;
47922;SDS011;33688;44.354;9.228;2023-11-19T14:49:50;2.10;;;1.08;;
47922;SDS011;33688;44.354;9.228;2023-11-19T14:52:16;1.95;;;1.10;;
47922;SDS011;33688;44.354;9.228;2023-11-19T14:54:42;2.63;;;1.17;;
47922;SDS011;33688;44.354;9.228;2023-11-19T14:57:08;2.53;;;1.17;;
47922;SDS011;33688;44.354;9.228;2023-11-19T14:59:34;3.17;;;1.20;;
47922;SDS011;33688;44.354;9.228;2023-11-19T15:02:01;4.60;;;1.80;;
47922;SDS011;33688;44.354;9.228;2023-11-19T15:04:27;2.47;;;1.27;;
47922;SDS011;33688;44.354;9.228;2023-11-19T15:06:56;2.88;;;1.33;;
47922;SDS011;33688;44.354;9.228;2023-11-19T15:09:25;3.72;;;0.90;;